createdAt,value
2018-05-12T00:01:05.497Z,18.37
2018-05-12T00:03:33.646Z,18.77
2018-05-12T00:06:01.815Z,18.70
2018-05-12T00:08:29.955Z,18.50
2018-05-12T00:10:58.083Z,18.70
2018-05-12T00:13:26.221Z,19.60
2018-05-12T00:15:54.386Z,18.97
2018-05-12T00:18:22.504Z,20.37
2018-05-12T00:20:50.670Z,19.67
2018-05-12T00:23:18.852Z,20.23
2018-05-12T00:25:46.990Z,20.03
2018-05-12T00:28:15.135Z,19.30
2018-05-12T00:30:43.279Z,20.37
2018-05-12T00:33:11.413Z,19.93
2018-05-12T00:35:39.649Z,19.23
2018-05-12T00:38:07.818Z,17.83
2018-05-12T00:40:35.970Z,18.97
2018-05-12T00:43:04.196Z,20.90
2018-05-12T00:45:32.284Z,20.83
2018-05-12T00:48:00.423Z,19.73
2018-05-12T00:50:28.589Z,16.90
2018-05-12T00:52:56.752Z,18.73
2018-05-12T00:55:24.903Z,18.07
2018-05-12T00:57:53.087Z,18.47
2018-05-12T01:00:21.193Z,19.87
2018-05-12T01:02:49.337Z,18.70
2018-05-12T01:05:17.484Z,19.45
2018-05-12T01:07:46.414Z,17.73
2018-05-12T01:10:14.553Z,18.37
2018-05-12T01:12:42.731Z,19.10
2018-05-12T01:15:10.887Z,18.33
2018-05-12T01:17:38.993Z,17.50
2018-05-12T01:20:07.135Z,18.17
2018-05-12T01:22:35.254Z,18.53
2018-05-12T01:25:03.406Z,18.43
2018-05-12T01:27:31.570Z,19.97
2018-05-12T01:29:59.688Z,18.50
2018-05-12T01:32:27.838Z,19.53
2018-05-12T01:34:55.972Z,19.87
2018-05-12T01:37:24.107Z,19.45
2018-05-12T01:39:52.247Z,18.97
2018-05-12T01:42:20.416Z,20.57
2018-05-12T01:44:48.543Z,20.00
2018-05-12T01:47:16.673Z,19.23
2018-05-12T01:49:44.838Z,20.50
2018-05-12T01:52:12.970Z,21.10
2018-05-12T01:54:41.128Z,18.87
2018-05-12T01:57:10.256Z,18.27
2018-05-12T01:59:38.635Z,17.53
2018-05-12T02:02:06.765Z,18.70
2018-05-12T02:04:34.915Z,18.77
2018-05-12T02:07:03.084Z,18.73
2018-05-12T02:09:31.236Z,18.92
2018-05-12T02:11:59.373Z,18.83
2018-05-12T02:14:27.512Z,19.03
2018-05-12T02:16:55.644Z,20.60
2018-05-12T02:19:23.789Z,18.13
2018-05-12T02:21:51.915Z,18.07
2018-05-12T02:24:20.039Z,18.53
2018-05-12T02:26:48.175Z,18.13
2018-05-12T02:29:16.319Z,18.97
2018-05-12T02:31:44.457Z,17.30
2018-05-12T02:34:12.643Z,19.75
2018-05-12T02:36:40.790Z,17.37
2018-05-12T02:39:09.937Z,18.55
2018-05-12T02:41:38.090Z,18.03
2018-05-12T02:44:06.230Z,20.00
2018-05-12T02:46:34.357Z,18.53
2018-05-12T02:49:02.494Z,19.40
2018-05-12T02:51:30.639Z,18.90
2018-05-12T02:53:58.781Z,18.10
2018-05-12T02:56:26.928Z,18.50
2018-05-12T02:58:55.068Z,20.77
2018-05-12T03:01:23.225Z,20.43
2018-05-12T03:03:51.364Z,19.10
2018-05-12T03:06:19.507Z,19.63
2018-05-12T03:08:47.632Z,19.67
2018-05-12T03:11:15.775Z,21.83
2018-05-12T03:13:43.905Z,20.77
2018-05-12T03:16:12.043Z,22.05
2018-05-12T03:18:40.171Z,20.77
2018-05-12T03:21:08.306Z,21.00
2018-05-12T03:23:36.433Z,21.33
2018-05-12T03:26:04.604Z,20.50
2018-05-12T03:28:32.717Z,22.80
2018-05-12T03:31:00.869Z,19.87
2018-05-12T03:33:29.023Z,20.33
2018-05-12T03:35:57.145Z,21.67
2018-05-12T03:38:25.285Z,21.43
2018-05-12T03:40:53.459Z,21.40
2018-05-12T03:43:21.593Z,20.30
2018-05-12T03:45:49.726Z,18.70
2018-05-12T03:48:17.854Z,19.83
2018-05-12T03:50:46.005Z,20.07
2018-05-12T03:53:14.135Z,19.00
2018-05-12T03:55:42.278Z,18.97
2018-05-12T03:58:10.429Z,19.30
2018-05-12T04:00:38.610Z,17.90
2018-05-12T04:03:06.825Z,18.00
2018-05-12T04:05:46.811Z,17.43
2018-05-12T04:08:26.624Z,19.70
2018-05-12T04:11:06.595Z,17.57
2018-05-12T04:13:34.730Z,18.50
2018-05-12T04:16:02.868Z,19.17
2018-05-12T04:18:31.014Z,16.67
2018-05-12T04:20:59.152Z,19.67
2018-05-12T04:23:27.301Z,18.27
2018-05-12T04:25:55.441Z,18.43
2018-05-12T04:28:23.595Z,18.40
2018-05-12T04:30:52.893Z,17.47
2018-05-12T04:33:21.019Z,16.67
2018-05-12T04:35:49.159Z,16.77
2018-05-12T04:38:17.297Z,16.07
2018-05-12T04:40:45.420Z,15.80
2018-05-12T04:43:13.558Z,15.83
2018-05-12T04:45:41.704Z,15.17
2018-05-12T04:48:09.839Z,14.23
2018-05-12T04:50:37.973Z,14.47
2018-05-12T04:53:06.191Z,14.40
2018-05-12T04:55:34.368Z,14.03
2018-05-12T04:58:02.525Z,14.50
2018-05-12T05:00:30.662Z,15.40
2018-05-12T05:02:58.785Z,18.40
2018-05-12T05:05:26.918Z,18.58
2018-05-12T05:07:55.070Z,21.43
2018-05-12T05:10:23.243Z,23.27
2018-05-12T05:12:51.390Z,26.20
2018-05-12T05:15:19.527Z,28.42
2018-05-12T05:17:47.666Z,28.50
2018-05-12T05:20:15.873Z,29.80
2018-05-12T05:22:43.949Z,28.90
2018-05-12T05:25:12.090Z,29.90
2018-05-12T05:27:40.226Z,29.63
2018-05-12T05:30:08.355Z,30.97
2018-05-12T05:32:36.499Z,32.22
2018-05-12T05:35:04.643Z,34.90
2018-05-12T05:37:32.782Z,31.73
2018-05-12T05:40:00.917Z,32.63
2018-05-12T05:42:29.074Z,31.67
2018-05-12T05:44:57.220Z,36.17
2018-05-12T05:47:25.346Z,36.47
2018-05-12T05:49:53.494Z,38.00
2018-05-12T05:52:21.635Z,38.50
2018-05-12T05:54:49.777Z,36.70
2018-05-12T05:57:17.913Z,37.00
2018-05-12T05:59:46.047Z,39.50
2018-05-12T06:02:14.176Z,37.47
2018-05-12T06:04:42.340Z,36.83
2018-05-12T06:07:10.828Z,37.80
2018-05-12T06:09:38.876Z,37.93
2018-05-12T06:12:07.017Z,39.37
2018-05-12T06:14:35.167Z,38.50
2018-05-12T06:17:03.307Z,37.50
2018-05-12T06:19:33.062Z,40.10
2018-05-12T06:22:01.190Z,36.45
2018-05-12T06:24:29.322Z,38.80
2018-05-12T06:26:57.482Z,37.00
2018-05-12T06:29:27.171Z,38.33
2018-05-12T06:31:56.569Z,35.83
2018-05-12T06:34:24.758Z,35.93
2018-05-12T06:36:52.906Z,37.40
2018-05-12T06:39:21.072Z,36.47
2018-05-12T06:41:49.182Z,36.90
2018-05-12T06:44:17.338Z,37.27
2018-05-12T06:46:45.485Z,36.60
2018-05-12T06:49:13.712Z,38.57
2018-05-12T06:51:41.831Z,38.33
2018-05-12T06:54:09.975Z,38.20
2018-05-12T06:56:38.139Z,38.20
2018-05-12T06:59:06.297Z,35.80
2018-05-12T07:01:34.443Z,37.00
2018-05-12T07:04:02.606Z,34.03
2018-05-12T07:06:30.738Z,37.90
2018-05-12T07:08:58.878Z,35.20
2018-05-12T07:11:27.011Z,39.70
2018-05-12T07:13:55.159Z,38.10
2018-05-12T07:16:23.312Z,38.80
2018-05-12T07:18:51.463Z,38.20
2018-05-12T07:21:19.585Z,37.75
2018-05-12T07:23:47.718Z,38.50
2018-05-12T07:26:15.854Z,36.60
2018-05-12T07:28:43.994Z,39.37
2018-05-12T07:31:12.150Z,41.33
2018-05-12T07:33:40.294Z,37.30
2018-05-12T07:36:08.431Z,36.93
2018-05-12T07:38:36.597Z,36.30
2018-05-12T07:41:04.729Z,34.90
2018-05-12T07:43:32.855Z,33.55
2018-05-12T07:46:00.990Z,37.10
2018-05-12T07:48:29.168Z,35.40
2018-05-12T07:50:57.351Z,36.17
2018-05-12T07:53:25.512Z,36.90
2018-05-12T07:55:53.655Z,36.70
2018-05-12T07:58:21.779Z,35.03
2018-05-12T08:00:49.912Z,36.50
2018-05-12T08:03:18.047Z,33.10
2018-05-12T08:05:46.187Z,35.35
2018-05-12T08:08:14.337Z,34.87
2018-05-12T08:10:42.496Z,36.50
2018-05-12T08:13:10.652Z,34.80
2018-05-12T08:15:38.790Z,36.72
2018-05-12T08:18:06.953Z,35.30
2018-05-12T08:20:35.177Z,35.00
2018-05-12T08:23:03.220Z,33.80
2018-05-12T08:25:32.898Z,28.45
2018-05-12T08:28:01.045Z,33.30
2018-05-12T08:30:30.069Z,35.40
2018-05-12T08:33:00.127Z,30.60
2018-05-12T08:35:28.334Z,35.47
2018-05-12T08:37:56.481Z,31.20
2018-05-12T08:40:24.650Z,27.30
2018-05-12T08:42:52.791Z,32.90
2018-05-12T08:45:20.943Z,30.62
2018-05-12T08:47:49.128Z,32.27
2018-05-12T08:50:17.264Z,29.17
2018-05-12T08:52:45.400Z,30.90
2018-05-12T08:55:13.550Z,33.47
2018-05-12T08:57:41.688Z,30.03
2018-05-12T09:00:09.810Z,26.60
2018-05-12T09:05:12.190Z,28.43
2018-05-12T09:07:40.333Z,27.67
2018-05-12T09:10:08.469Z,27.23
2018-05-12T09:12:36.594Z,28.80
2018-05-12T09:15:04.864Z,29.40
2018-05-12T09:17:32.999Z,26.00
2018-05-12T09:20:01.140Z,28.60
2018-05-12T09:22:29.291Z,31.97
2018-05-12T09:24:57.419Z,28.57
2018-05-12T09:27:25.577Z,27.80
2018-05-12T09:29:53.711Z,32.10
2018-05-12T09:32:21.854Z,30.80
2018-05-12T09:34:50.014Z,26.17
2018-05-12T09:37:18.222Z,27.67
2018-05-12T09:39:46.339Z,28.40
2018-05-12T09:42:14.561Z,30.40
2018-05-12T09:44:42.625Z,28.50
2018-05-12T09:47:10.787Z,28.80
2018-05-12T09:49:38.925Z,26.70
2018-05-12T09:52:07.076Z,25.10
2018-05-12T09:54:35.217Z,25.93
2018-05-12T09:57:03.380Z,25.80
2018-05-12T09:59:31.736Z,23.53
2018-05-12T10:01:59.806Z,21.20
2018-05-12T10:04:27.932Z,20.43
2018-05-12T10:06:56.095Z,23.90
2018-05-12T10:09:24.231Z,23.00
2018-05-12T10:11:52.365Z,22.10
2018-05-12T10:14:20.526Z,22.40
2018-05-12T10:16:48.694Z,20.10
2018-05-12T10:19:16.861Z,19.80
2018-05-12T10:21:45.066Z,18.17
2018-05-12T10:24:13.235Z,17.67
2018-05-12T10:26:41.340Z,17.70
2018-05-12T10:29:10.223Z,19.20
2018-05-12T10:31:38.350Z,17.40
2018-05-12T10:34:06.483Z,17.70
2018-05-12T10:36:34.643Z,15.67
2018-05-12T10:39:02.770Z,17.57
2018-05-12T10:41:30.907Z,15.70
2018-05-12T10:43:59.073Z,12.73
2018-05-12T10:46:27.191Z,12.60
2018-05-12T10:48:55.341Z,12.90
2018-05-12T10:51:23.669Z,13.05
2018-05-12T10:53:51.812Z,13.33
2018-05-12T10:56:19.934Z,15.00
2018-05-12T10:58:48.109Z,13.37
2018-05-12T11:01:16.241Z,11.33
2018-05-12T11:03:44.375Z,12.40
2018-05-12T11:06:12.534Z,12.73
2018-05-12T11:08:40.671Z,12.10
2018-05-12T11:11:09.295Z,13.97
2018-05-12T11:13:37.730Z,13.30
2018-05-12T11:16:05.979Z,12.63
2018-05-12T11:18:34.062Z,13.60
2018-05-12T11:21:02.212Z,14.23
2018-05-12T11:23:30.363Z,13.10
2018-05-12T11:25:58.499Z,12.77
2018-05-12T11:28:26.648Z,12.07
2018-05-12T11:30:54.870Z,11.87
2018-05-12T11:33:23.018Z,11.90
2018-05-12T11:35:51.348Z,10.23
2018-05-12T11:38:19.466Z,9.13
2018-05-12T11:40:47.634Z,12.13
2018-05-12T11:43:15.803Z,11.00
2018-05-12T11:45:43.941Z,12.40
2018-05-12T11:48:12.093Z,10.37
2018-05-12T11:50:40.267Z,10.60
2018-05-12T11:53:08.458Z,10.03
2018-05-12T11:55:36.600Z,10.13
2018-05-12T11:58:04.774Z,11.17
2018-05-12T12:00:32.920Z,10.57
2018-05-12T12:03:01.075Z,10.17
2018-05-12T12:05:29.387Z,10.73
2018-05-12T12:07:57.512Z,9.63
2018-05-12T12:10:25.663Z,8.63
2018-05-12T12:12:53.839Z,9.53
2018-05-12T12:15:21.987Z,10.10
2018-05-12T12:17:50.137Z,8.10
2018-05-12T12:20:18.308Z,9.83
2018-05-12T12:22:46.450Z,6.87
2018-05-12T12:25:14.569Z,8.25
2018-05-12T12:27:42.712Z,7.67
2018-05-12T12:30:10.853Z,7.43
2018-05-12T12:32:39.024Z,7.43
2018-05-12T12:35:07.274Z,7.10
2018-05-12T12:37:35.405Z,8.63
2018-05-12T12:40:03.539Z,6.13
2018-05-12T12:42:31.859Z,6.50
2018-05-12T12:44:59.988Z,6.30
2018-05-12T12:47:28.116Z,6.97
2018-05-12T12:49:56.280Z,7.43
2018-05-12T12:52:24.381Z,6.53
2018-05-12T12:54:52.505Z,7.13
2018-05-12T12:57:20.653Z,8.27
2018-05-12T12:59:48.762Z,7.40
2018-05-12T13:02:16.903Z,7.47
2018-05-12T13:04:45.316Z,7.80
2018-05-12T13:07:13.353Z,7.90
2018-05-12T13:09:41.482Z,10.00
2018-05-12T13:12:09.784Z,11.00
2018-05-12T13:14:41.043Z,11.63
2018-05-12T13:17:09.177Z,11.80
2018-05-12T13:19:37.343Z,11.87
2018-05-12T13:22:05.600Z,11.73
2018-05-12T13:24:33.659Z,12.13
2018-05-12T13:27:01.838Z,11.80
2018-05-12T13:29:29.968Z,10.03
2018-05-12T13:31:58.095Z,10.23
2018-05-12T13:34:26.255Z,9.75
2018-05-12T13:36:54.379Z,9.07
2018-05-12T13:39:22.523Z,9.47
2018-05-12T13:41:50.689Z,9.17
2018-05-12T13:44:18.855Z,9.60
2018-05-12T13:46:46.979Z,8.53
2018-05-12T13:49:15.215Z,9.30
2018-05-12T13:51:43.340Z,9.90
2018-05-12T13:54:11.466Z,7.53
2018-05-12T13:56:39.770Z,8.60
2018-05-12T13:59:08.731Z,8.70
2018-05-12T14:01:36.897Z,8.10
2018-05-12T14:04:05.047Z,8.67
2018-05-12T14:06:33.183Z,8.43
2018-05-12T14:09:01.311Z,9.00
2018-05-12T14:11:29.472Z,8.23
2018-05-12T14:13:57.582Z,8.57
2018-05-12T14:16:25.716Z,9.33
2018-05-12T14:18:53.967Z,9.40
2018-05-12T14:21:22.083Z,8.88
2018-05-12T14:23:50.222Z,9.70
2018-05-12T14:26:18.520Z,9.33
2018-05-12T14:28:46.658Z,8.53
2018-05-12T14:31:14.804Z,10.00
2018-05-12T14:33:42.969Z,7.57
2018-05-12T14:36:11.121Z,6.90
2018-05-12T14:38:39.244Z,6.95
2018-05-12T14:41:07.453Z,6.73
2018-05-12T14:43:35.567Z,7.57
2018-05-12T14:46:03.720Z,7.77
2018-05-12T14:48:31.861Z,6.27
2018-05-12T14:50:59.996Z,5.70
2018-05-12T14:53:28.148Z,6.20
2018-05-12T14:55:58.353Z,6.87
2018-05-12T14:58:26.492Z,8.73
2018-05-12T15:00:54.613Z,6.73
2018-05-12T15:03:22.768Z,7.50
2018-05-12T15:05:50.907Z,6.50
2018-05-12T15:08:19.096Z,6.83
2018-05-12T15:10:47.234Z,7.17
2018-05-12T15:13:15.352Z,7.20
2018-05-12T15:15:43.506Z,6.70
2018-05-12T15:18:11.673Z,7.43
2018-05-12T15:20:39.783Z,8.80
2018-05-12T15:23:07.915Z,7.07
2018-05-12T15:25:36.199Z,6.00
2018-05-12T15:28:04.319Z,6.50
2018-05-12T15:30:32.446Z,6.20
2018-05-12T15:33:00.899Z,6.57
2018-05-12T15:35:29.034Z,7.50
2018-05-12T15:37:57.176Z,7.07
2018-05-12T15:40:25.322Z,7.37
2018-05-12T15:42:53.475Z,7.03
2018-05-12T15:45:21.601Z,6.35
2018-05-12T15:47:49.757Z,27.43
2018-05-12T15:50:17.915Z,28.27
2018-05-12T15:52:46.067Z,8.63
2018-05-12T15:55:14.354Z,7.70
2018-05-12T15:57:42.500Z,11.87
2018-05-12T16:00:10.651Z,12.00
2018-05-12T16:02:38.778Z,7.43
2018-05-12T16:05:06.988Z,7.97
2018-05-12T16:07:35.119Z,9.43
2018-05-12T16:10:03.281Z,7.77
2018-05-12T16:12:31.411Z,8.67
2018-05-12T16:14:59.543Z,7.43
2018-05-12T16:17:27.687Z,8.25
2018-05-12T16:19:55.794Z,8.70
2018-05-12T16:22:23.952Z,7.73
2018-05-12T16:24:52.131Z,6.70
2018-05-12T16:27:20.276Z,9.47
2018-05-12T16:29:49.716Z,8.17
2018-05-12T16:32:18.255Z,7.40
2018-05-12T16:34:46.444Z,8.20
2018-05-12T16:37:14.559Z,6.78
2018-05-12T16:39:42.724Z,7.30
2018-05-12T16:42:10.850Z,8.57
2018-05-12T16:44:39.089Z,7.50
2018-05-12T16:47:07.223Z,7.90
2018-05-12T16:49:35.340Z,7.80
2018-05-12T16:52:03.471Z,6.80
2018-05-12T16:54:31.629Z,7.07
2018-05-12T16:56:59.747Z,8.33
2018-05-12T16:59:27.861Z,8.43
2018-05-12T17:01:56.068Z,8.77
2018-05-12T17:04:24.120Z,7.67
2018-05-12T17:06:52.234Z,8.70
2018-05-12T17:09:20.379Z,10.57
2018-05-12T17:11:48.502Z,9.00
2018-05-12T17:14:16.635Z,8.60
2018-05-12T17:16:44.759Z,8.80
2018-05-12T17:19:12.897Z,9.10
2018-05-12T17:21:41.042Z,10.30
2018-05-12T17:24:09.178Z,9.07
2018-05-12T17:26:37.307Z,9.20
2018-05-12T17:29:05.468Z,10.10
2018-05-12T17:31:33.661Z,9.60
2018-05-12T17:34:01.810Z,10.05
2018-05-12T17:36:29.939Z,10.37
2018-05-12T17:38:58.081Z,11.47
2018-05-12T17:41:26.215Z,11.02
2018-05-12T17:43:54.378Z,10.00
2018-05-12T17:46:22.510Z,10.53
2018-05-12T17:48:50.652Z,9.77
2018-05-12T17:51:18.864Z,10.10
2018-05-12T17:53:47.065Z,10.40
2018-05-12T17:56:15.262Z,10.40
2018-05-12T17:58:43.424Z,10.70
2018-05-12T18:01:11.577Z,11.13
2018-05-12T18:03:39.727Z,10.27
2018-05-12T18:06:07.859Z,9.47
2018-05-12T18:08:35.996Z,10.73
2018-05-12T18:11:04.286Z,9.47
2018-05-12T18:13:32.416Z,10.33
2018-05-12T18:16:00.576Z,11.70
2018-05-12T18:18:28.715Z,10.90
2018-05-12T18:20:56.857Z,14.60
2018-05-12T18:23:25.031Z,16.60
2018-05-12T18:25:53.177Z,12.40
2018-05-12T18:28:21.327Z,11.90
2018-05-12T18:30:49.515Z,12.10
2018-05-12T18:33:17.637Z,12.97
2018-05-12T18:35:45.781Z,11.13
2018-05-12T18:38:13.948Z,12.53
2018-05-12T18:40:43.581Z,13.67
2018-05-12T18:43:11.796Z,12.33
2018-05-12T18:45:39.940Z,12.43
2018-05-12T18:48:08.087Z,12.30
2018-05-12T18:50:36.280Z,14.87
2018-05-12T18:53:04.397Z,13.17
2018-05-12T18:55:32.528Z,12.53
2018-05-12T18:58:00.662Z,12.52
2018-05-12T19:00:28.826Z,14.50
